Temp: 4.4°C   Baro: 1017.3mb
  Wind: 0.0mph   Dir: NNW (342°)
  Rain: 0.0mm (0.0mm/hr)
  Solar: 0W/m2  Hum: 83%

Historic data

Bath Spa Weather Station Historical Data
Daily Summary for October 12, 2021 Units:  Metric    English   Both
Daily Weekly Monthly Yearly Custom
  High: Low: Average:
Temperature: 16.4 °C 5.9 °C 11.1 °C
Dew Point: 11.8 °C 5.4 °C 9.2 °C
Humidity: 95% 71.2% 85%
Wind Speed: 11.3km/h 0km/h 2.3km/h
Wind Gust: 19.3km/h - -
Wind- - WNW
Pressure: 1030.4 hPa 1026 hPa -
Precipitation: 0 mm    
Historical Graphs
 
 
Tabular Data for October 12, 2021
Time Temperature Dew Point Pressure Wind Wind Speed Wind Gust Humidity Rainfall Rate (Hourly) solar
00:04 7.5 °C 6.6 °C 1030.4 hPa Calm     91% 0 mm 0 W/m2
00:09 7.6 °C 6.8 °C 1030.4 hPa Calm     91.6% 0 mm 0 W/m2
00:14 7.6 °C 6.9 °C 1030 hPa Calm     92% 0 mm 0 W/m2
00:19 7.6 °C 6.9 °C 1030 hPa Calm     92% 0 mm 0 W/m2
00:24 7.7 °C 7 °C 1030 hPa Calm     92% 0 mm 0 W/m2
00:29 7.6 °C 6.9 °C 1030 hPa Calm     92% 0 mm 0 W/m2
00:34 7.6 °C 6.9 °C 1030 hPa Calm     92% 0 mm 0 W/m2
00:39 7.6 °C 6.9 °C 1030 hPa Calm     92% 0 mm 0 W/m2
00:44 7.6 °C 6.9 °C 1030 hPa Calm     92% 0 mm 0 W/m2
00:49 7.6 °C 6.9 °C 1030 hPa Calm     92% 0 mm 0 W/m2
00:54 7.6 °C 6.8 °C 1030 hPa Calm     92% 0 mm 0 W/m2
00:59 7.6 °C 6.8 °C 1030 hPa Calm     92% 0 mm 0 W/m2
01:04 7.6 °C 6.9 °C 1030 hPa Calm     92% 0 mm 0 W/m2
01:09 7.6 °C 6.9 °C 1029.7 hPa Calm     92% 0 mm 0 W/m2
01:14 7.6 °C 6.9 °C 1029.7 hPa Calm     92% 0 mm 0 W/m2
01:19 7.6 °C 6.9 °C 1029.7 hPa Calm     92% 0 mm 0 W/m2
01:24 7.5 °C 6.8 °C 1029.7 hPa Calm     92% 0 mm 0 W/m2
01:29 7.5 °C 6.8 °C 1029.7 hPa Calm     92% 0 mm 0 W/m2
01:34 7.6 °C 6.9 °C 1029.7 hPa Calm     92% 0 mm 0 W/m2
01:39 7.5 °C 6.8 °C 1029.7 hPa Calm     92% 0 mm 0 W/m2
01:44 7.5 °C 6.8 °C 1029.7 hPa Calm     92% 0 mm 0 W/m2
01:49 7.5 °C 6.8 °C 1029.7 hPa Calm     92% 0 mm 0 W/m2
01:54 7.5 °C 6.8 °C 1029.7 hPa Calm     92% 0 mm 0 W/m2
01:59 7.3 °C 6.7 °C 1029.7 hPa Calm     92% 0 mm 0 W/m2
02:04 7.2 °C 6.6 °C 1029.3 hPa Calm     92% 0 mm 0 W/m2
02:09 7.1 °C 6.4 °C 1029.3 hPa Calm     92% 0 mm 0 W/m2
02:14 7.1 °C 6.3 °C 1029.3 hPa NW 0.3 km/h 1.6 km/h 92% 0 mm 0 W/m2
02:19 7 °C 6.3 °C 1029.3 hPa NW 0.8 km/h 1.6 km/h 92% 0 mm 0 W/m2
02:24 6.9 °C 6.2 °C 1029.3 hPa Calm   1.6 km/h 92% 0 mm 0 W/m2
02:29 6.9 °C 6.2 °C 1029.3 hPa Calm     92% 0 mm 0 W/m2
02:34 6.9 °C 6.2 °C 1029.3 hPa Calm     92% 0 mm 0 W/m2
02:38 6.9 °C 6.2 °C 1029.3 hPa Calm     92% 0 mm 0 W/m2
02:44 6.9 °C 6.2 °C 1029.3 hPa Calm     92% 0 mm 0 W/m2
02:49 6.8 °C 6.2 °C 1029 hPa Calm     92% 0 mm 0 W/m2
02:54 6.8 °C 6.1 °C 1029 hPa Calm     92% 0 mm 0 W/m2
02:59 6.8 °C 6.1 °C 1029 hPa Calm     92% 0 mm 0 W/m2
03:04 6.8 °C 6.1 °C 1029 hPa Calm     92% 0 mm 0 W/m2
03:09 6.7 °C 6 °C 1029 hPa Calm     92% 0 mm 0 W/m2
03:14 6.7 °C 6.1 °C 1029 hPa Calm     92.8% 0 mm 0 W/m2
03:19 6.7 °C 6.1 °C 1029 hPa Calm     93% 0 mm 0 W/m2
03:24 6.8 °C 6.2 °C 1029 hPa NW 0.3 km/h 1.6 km/h 93% 0 mm 0 W/m2
03:29 6.8 °C 6.2 °C 1028.7 hPa Calm     93% 0 mm 0 W/m2
03:34 6.6 °C 6 °C 1028.7 hPa Calm     93% 0 mm 0 W/m2
03:39 6.6 °C 6 °C 1028.7 hPa Calm     93% 0 mm 0 W/m2
03:44 6.6 °C 6 °C 1028.7 hPa Calm     93% 0 mm 0 W/m2
03:49 6.6 °C 6 °C 1028.7 hPa Calm     93% 0 mm 0 W/m2
03:54 6.6 °C 6 °C 1028.7 hPa Calm     93% 0 mm 0 W/m2
03:59 6.6 °C 6 °C 1028.7 hPa Calm     93% 0 mm 0 W/m2
04:04 6.5 °C 5.9 °C 1028.3 hPa Calm   1.6 km/h 93% 0 mm 0 W/m2
04:09 6.3 °C 5.7 °C 1028.3 hPa Calm     93% 0 mm 0 W/m2
04:14 6.3 °C 5.7 °C 1028.3 hPa Calm     93% 0 mm 0 W/m2
04:19 6.4 °C 5.8 °C 1028.3 hPa Calm     93% 0 mm 0 W/m2
04:24 6.4 °C 5.8 °C 1028.3 hPa Calm     93% 0 mm 0 W/m2
04:29 6.6 °C 5.9 °C 1028.3 hPa Calm     93% 0 mm 0 W/m2
04:34 6.6 °C 6 °C 1028.3 hPa Calm     93% 0 mm 0 W/m2
04:39 6.6 °C 6 °C 1028.3 hPa Calm     93% 0 mm 0 W/m2
04:44 6.6 °C 6 °C 1028.3 hPa Calm     93% 0 mm 0 W/m2
04:49 6.5 °C 5.9 °C 1028.3 hPa Calm     93% 0 mm 0 W/m2
04:54 6.4 °C 5.8 °C 1028.3 hPa Calm     93% 0 mm 0 W/m2
04:59 6.3 °C 5.7 °C 1028.3 hPa Calm     93% 0 mm 0 W/m2
05:04 6.2 °C 5.7 °C 1028.3 hPa Calm     93% 0 mm 0 W/m2
05:09 6.2 °C 5.6 °C 1028.3 hPa Calm     93% 0 mm 0 W/m2
05:14 6.1 °C 5.5 °C 1028.3 hPa Calm     93% 0 mm 0 W/m2
05:19 6.1 °C 5.5 °C 1028.3 hPa Calm     93% 0 mm 0 W/m2
05:24 6 °C 5.4 °C 1028.3 hPa Calm     93% 0 mm 0 W/m2
05:29 6.1 °C 5.4 °C 1028.3 hPa Calm     93% 0 mm 0 W/m2
05:34 6.1 °C 5.4 °C 1028.3 hPa Calm     93% 0 mm 0 W/m2
05:39 6.1 °C 5.5 °C 1028.3 hPa Calm     93% 0 mm 0 W/m2
05:44 6.2 °C 5.6 °C 1028.3 hPa NW 0.6 km/h 3.2 km/h 93% 0 mm 0 W/m2
05:49 6.2 °C 5.6 °C 1028.3 hPa NW 1.4 km/h 3.2 km/h 93% 0 mm 0 W/m2
05:54 6.2 °C 5.6 °C 1028.3 hPa Calm   3.2 km/h 93% 0 mm 0 W/m2
05:59 6.2 °C 5.6 °C 1028.3 hPa Calm     93% 0 mm 0 W/m2
06:04 6.2 °C 5.6 °C 1028.3 hPa Calm     93.2% 0 mm 0 W/m2
06:09 6.2 °C 5.7 °C 1028.3 hPa NW 0.3 km/h 1.6 km/h 93.6% 0 mm 0 W/m2
06:14 6.1 °C 5.7 °C 1028.3 hPa Calm     94% 0 mm 0 W/m2
06:19 6.1 °C 5.7 °C 1028.3 hPa Calm   1.6 km/h 94% 0 mm 0 W/m2
06:24 6.1 °C 5.7 °C 1028.3 hPa NW 0.6 km/h 1.6 km/h 94% 0 mm 0 W/m2
06:29 6.1 °C 5.7 °C 1028 hPa Calm     94% 0 mm 0 W/m2
06:34 6.2 °C 5.8 °C 1028 hPa Calm     94% 0 mm 0 W/m2
06:39 6.3 °C 5.8 °C 1028 hPa Calm     94% 0 mm 0 W/m2
06:44 6.3 °C 5.9 °C 1028 hPa Calm     94% 0 mm 0 W/m2
06:49 6.3 °C 5.9 °C 1028 hPa Calm     94% 0 mm 0 W/m2
06:54 6.4 °C 6 °C 1028 hPa Calm     94% 0 mm 0 W/m2
06:59 6.4 °C 6.1 °C 1028 hPa Calm     94% 0 mm 0 W/m2
07:04 6.5 °C 6.1 °C 1028.3 hPa NW 0.6 km/h 1.6 km/h 94% 0 mm 0 W/m2
07:09 6.6 °C 6.2 °C 1028.3 hPa NW 1.6 km/h 3.2 km/h 94% 0 mm 0 W/m2
07:14 6.5 °C 6.1 °C 1028 hPa NW 0.6 km/h 3.2 km/h 94% 0 mm 0 W/m2
07:19 6.4 °C 6.1 °C 1028 hPa NW 1 km/h 3.2 km/h 94% 0 mm 0 W/m2
07:24 6.3 °C 5.9 °C 1028 hPa NW 1.3 km/h 3.2 km/h 94% 0 mm 0 W/m2
07:29 6.2 °C 5.8 °C 1028 hPa NW 0.6 km/h 3.2 km/h 94% 0 mm 0 W/m2
07:34 6.1 °C 5.7 °C 1027.7 hPa NW 0.3 km/h 1.6 km/h 94% 0 mm 7 W/m2
07:39 5.9 °C 5.6 °C 1027.7 hPa NW 0.6 km/h 1.6 km/h 94% 0 mm 14 W/m2
07:44 5.9 °C 5.5 °C 1027.7 hPa Calm   1.6 km/h 94% 0 mm 26 W/m2
07:49 6.1 °C 5.7 °C 1027.3 hPa Calm     94.2% 0 mm 33 W/m2
07:54 6.4 °C 6.2 °C 1027.7 hPa Calm     95% 0 mm 37 W/m2
07:59 6.7 °C 6.4 °C 1027.7 hPa Calm     95% 0 mm 42 W/m2
08:04 6.6 °C 6.4 °C 1027.7 hPa Calm     95% 0 mm 51 W/m2
08:09 6.3 °C 6 °C 1028 hPa Calm     94.8% 0 mm 51 W/m2
08:14 6.4 °C 6.2 °C 1028 hPa Calm     94.8% 0 mm 56 W/m2
08:19 6.7 °C 6.5 °C 1027.7 hPa Calm     95% 0 mm 69 W/m2
08:24 6.7 °C 6.5 °C 1028 hPa Calm     95% 0 mm 65 W/m2
08:29 6.7 °C 6.5 °C 1028 hPa Calm     95% 0 mm 67 W/m2
08:34 6.8 °C 6.6 °C 1028 hPa Calm     95% 0 mm 74 W/m2
08:39 6.8 °C 6.6 °C 1028 hPa NW 1.3 km/h 3.2 km/h 95% 0 mm 77 W/m2
08:44 6.9 °C 6.7 °C 1028 hPa NW 0.3 km/h 3.2 km/h 95% 0 mm 83 W/m2
08:49 7.2 °C 6.9 °C 1028 hPa NW 0.6 km/h 1.6 km/h 95% 0 mm 91 W/m2
08:54 7.4 °C 7.1 °C 1028 hPa Calm   1.6 km/h 95% 0 mm 105 W/m2
08:59 7.6 °C 7.3 °C 1027.7 hPa Calm   1.6 km/h 95% 0 mm 118 W/m2
09:04 7.7 °C 7.4 °C 1027.7 hPa NW 0.3 km/h 3.2 km/h 95% 0 mm 127 W/m2
09:09 7.9 °C 7.6 °C 1027.7 hPa Calm   1.6 km/h 95% 0 mm 134 W/m2
09:14 8.1 °C 7.8 °C 1027.7 hPa NW 1.9 km/h 6.4 km/h 95% 0 mm 149 W/m2
09:19 8.4 °C 8.1 °C 1027.7 hPa NW 5.3 km/h 8 km/h 95% 0 mm 142 W/m2
09:24 8.6 °C 8.3 °C 1027.7 hPa NW 4.2 km/h 9.7 km/h 95% 0 mm 167 W/m2
09:29 8.7 °C 8.4 °C 1027.7 hPa NW 5.1 km/h 9.7 km/h 95% 0 mm 169 W/m2
09:34 9 °C 8.7 °C 1027.7 hPa NW 4.7 km/h 9.7 km/h 95% 0 mm 186 W/m2
09:39 9.2 °C 8.9 °C 1027.7 hPa NW 5.1 km/h 9.7 km/h 95% 0 mm 206 W/m2
09:44 9.6 °C 9.3 °C 1027.7 hPa NW 3.5 km/h 6.4 km/h 95% 0 mm 209 W/m2
09:49 9.8 °C 9.6 °C 1027.7 hPa NW 2.1 km/h 6.4 km/h 95% 0 mm 190 W/m2
09:54 10.2 °C 9.9 °C 1027.7 hPa NW 3.4 km/h 6.4 km/h 95% 0 mm 190 W/m2
09:59 10.5 °C 10.1 °C 1027.7 hPa NW 4 km/h 8 km/h 94.2% 0 mm 237 W/m2
10:04 10.8 °C 10.3 °C 1027.7 hPa NW 7.2 km/h 9.7 km/h 93.6% 0 mm 246 W/m2
10:09 10.8 °C 10.1 °C 1027.7 hPa NW 9 km/h 14.5 km/h 92.4% 0 mm 236 W/m2
10:14 10.8 °C 9.9 °C 1027.7 hPa NW 8.7 km/h 14.5 km/h 91.2% 0 mm 237 W/m2
10:19 10.9 °C 9.8 °C 1027.7 hPa NW 7.1 km/h 12.9 km/h 89.6% 0 mm 232 W/m2
10:24 11.2 °C 9.9 °C 1027.7 hPa NW 5.6 km/h 12.9 km/h 89% 0 mm 271 W/m2
10:29 11.3 °C 9.9 °C 1027.7 hPa NW 4 km/h 9.7 km/h 88% 0 mm 309 W/m2
10:34 11.7 °C 10.2 °C 1027.7 hPa NW 2.6 km/h 9.7 km/h 87.6% 0 mm 318 W/m2
10:39 11.9 °C 10.3 °C 1027.7 hPa NW 5.6 km/h 9.7 km/h 87% 0 mm 327 W/m2
10:44 12.1 °C 10.3 °C 1027.7 hPa NW 6 km/h 9.7 km/h 86% 0 mm 323 W/m2
10:49 12.2 °C 10.2 °C 1027.3 hPa NW 6.1 km/h 9.7 km/h 85% 0 mm 320 W/m2
10:54 12.2 °C 10.2 °C 1027.3 hPa NW 6.1 km/h 11.3 km/h 84.8% 0 mm 352 W/m2
10:59 12.2 °C 10.2 °C 1027.3 hPa NW 6.4 km/h 12.9 km/h 84.2% 0 mm 367 W/m2
11:04 12.2 °C 10.1 °C 1027.3 hPa NW 6.4 km/h 11.3 km/h 84% 0 mm 394 W/m2
11:09 12.4 °C 10.3 °C 1027.3 hPa NW 6.3 km/h 9.7 km/h 84% 0 mm 397 W/m2
11:14 12.6 °C 10.3 °C 1027.3 hPa NW 6.3 km/h 11.3 km/h 83.4% 0 mm 397 W/m2
11:19 12.7 °C 10.4 °C 1027.3 hPa NW 6.1 km/h 11.3 km/h 83% 0 mm 411 W/m2
11:24 12.9 °C 10.7 °C 1027.3 hPa NW 7.2 km/h 12.9 km/h 83% 0 mm 411 W/m2
11:29 13 °C 10.6 °C 1027.3 hPa NW 7.7 km/h 11.3 km/h 82.6% 0 mm 403 W/m2
11:34 13.2 °C 10.8 °C 1027.3 hPa NW 7.4 km/h 11.3 km/h 82.4% 0 mm 420 W/m2
11:39 13.4 °C 11 °C 1027.3 hPa NW 2.9 km/h 9.7 km/h 82.2% 0 mm 436 W/m2
11:44 13.8 °C 11.1 °C 1027.3 hPa NW 4.8 km/h 9.7 km/h 81% 0 mm 436 W/m2
11:49 14 °C 11.2 °C 1027.3 hPa NW 5.8 km/h 11.3 km/h 80.6% 0 mm 464 W/m2
11:54 13.9 °C 10.8 °C 1027 hPa NW 4.2 km/h 14.5 km/h 79% 0 mm 464 W/m2
11:59 14.3 °C 11.1 °C 1027 hPa NW 3.9 km/h 12.9 km/h 78.8% 0 mm 492 W/m2
12:04 14.3 °C 11 °C 1027 hPa NW 8.7 km/h 14.5 km/h 78% 0 mm 485 W/m2
12:09 14.3 °C 10.8 °C 1027 hPa NW 7.9 km/h 19.3 km/h 77.4% 0 mm 475 W/m2
12:14 14.3 °C 10.8 °C 1027 hPa NW 8.4 km/h 19.3 km/h 77.2% 0 mm 489 W/m2
12:19 14.7 °C 11.2 °C 1027 hPa NW 6.8 km/h 11.3 km/h 76.6% 0 mm 506 W/m2
12:24 14.7 °C 11 °C 1027 hPa NW 8.4 km/h 16.1 km/h 75.8% 0 mm 497 W/m2
12:29 14.8 °C 11.2 °C 1027 hPa NW 5.1 km/h 11.3 km/h 76% 0 mm 473 W/m2
12:34 15.1 °C 11.4 °C 1027 hPa NW 6 km/h 11.3 km/h 76% 0 mm 313 W/m2
12:39 15.2 °C 11.2 °C 1027 hPa NW 4.5 km/h 12.9 km/h 74.4% 0 mm 473 W/m2
12:44 15.1 °C 11.1 °C 1026.6 hPa NW 6.1 km/h 14.5 km/h 74.4% 0 mm 483 W/m2
12:49 15.4 °C 11.2 °C 1026.6 hPa NW 4.8 km/h 16.1 km/h 73.4% 0 mm 483 W/m2
12:54 15.3 °C 11 °C 1026.6 hPa NNW 10.5 km/h 17.7 km/h 73% 0 mm 490 W/m2
12:59 15.5 °C 11.2 °C 1026.6 hPa NNW 8.7 km/h 17.7 km/h 73% 0 mm 489 W/m2
13:04 15.8 °C 11.3 °C 1026.6 hPa North 2.6 km/h 16.1 km/h 72.2% 0 mm 501 W/m2
13:09 16.4 °C 11.8 °C 1026.6 hPa NNW 8 km/h 17.7 km/h 71.4% 0 mm 501 W/m2
13:14 16.2 °C 11.4 °C 1026.6 hPa NW 7.6 km/h 11.3 km/h 71.2% 0 mm 536 W/m2
13:19 16 °C 11.3 °C 1026.6 hPa NW 9.8 km/h 14.5 km/h 71.6% 0 mm 427 W/m2
13:24 15.6 °C 11.1 °C 1026.6 hPa North 7.4 km/h 19.3 km/h 72% 0 mm 292 W/m2
13:29 15.6 °C 11.3 °C 1026.6 hPa NNE 11.3 km/h 16.1 km/h 73% 0 mm 229 W/m2
13:34 15.4 °C 11.1 °C 1026.6 hPa NNE 6.4 km/h 16.1 km/h 73% 0 mm 209 W/m2
13:39 15.3 °C 11.2 °C 1026.6 hPa NNE 4 km/h 9.7 km/h 73.8% 0 mm 257 W/m2
13:44 15.3 °C 11.2 °C 1026.6 hPa North 8 km/h 14.5 km/h 74% 0 mm 257 W/m2
13:49 15.2 °C 11.1 °C 1026.6 hPa North 6.3 km/h 14.5 km/h 74% 0 mm 181 W/m2
13:54 15.2 °C 11.1 °C 1026.6 hPa NNW 6 km/h 12.9 km/h 74.2% 0 mm 114 W/m2
13:59 15.1 °C 11.2 °C 1026.6 hPa North 7.6 km/h 12.9 km/h 75% 0 mm 127 W/m2
14:04 14.9 °C 11 °C 1026.6 hPa North 6.3 km/h 14.5 km/h 75% 0 mm 172 W/m2
14:09 14.9 °C 11 °C 1026.6 hPa North 7.6 km/h 16.1 km/h 75% 0 mm 192 W/m2
14:14 14.9 °C 11.1 °C 1026.3 hPa North 5 km/h 11.3 km/h 75.2% 0 mm 171 W/m2
14:19 15.1 °C 11.4 °C 1026.6 hPa North 10 km/h 19.3 km/h 76% 0 mm 165 W/m2
14:24 14.9 °C 11 °C 1026.6 hPa North 8.9 km/h 19.3 km/h 75% 0 mm 123 W/m2
14:29 14.8 °C 10.8 °C 1026.3 hPa NE 8.2 km/h 16.1 km/h 75% 0 mm 107 W/m2
14:34 14.7 °C 10.9 °C 1026.6 hPa NNE 2.7 km/h 11.3 km/h 75.8% 0 mm 91 W/m2
14:39 14.7 °C 11 °C 1026.6 hPa NNE 4.3 km/h 12.9 km/h 76% 0 mm 97 W/m2
14:44 14.7 °C 11 °C 1026.6 hPa North 7.9 km/h 12.9 km/h 76% 0 mm 162 W/m2
14:49 14.8 °C 10.9 °C 1026.6 hPa North 7.7 km/h 14.5 km/h 75.2% 0 mm 213 W/m2
14:54 15.1 °C 11 °C 1026.3 hPa NNW 7.7 km/h 17.7 km/h 74.4% 0 mm 199 W/m2
14:59 15.2 °C 11.1 °C 1026.3 hPa North 8.7 km/h 19.3 km/h 74% 0 mm 188 W/m2
15:04 15.2 °C 10.9 °C 1026.3 hPa North 8.4 km/h 17.7 km/h 73.2% 0 mm 186 W/m2
15:09 15.3 °C 11.1 °C 1026.3 hPa North 8.7 km/h 16.1 km/h 73.2% 0 mm 186 W/m2
15:14 15.3 °C 11.1 °C 1026.3 hPa North 4.5 km/h 16.1 km/h 73.4% 0 mm 422 W/m2
15:19 15.7 °C 11.4 °C 1026.3 hPa North 5.6 km/h 17.7 km/h 73.2% 0 mm 424 W/m2
15:24 15.7 °C 11.4 °C 1026 hPa NNW 6.1 km/h 11.3 km/h 73% 0 mm 174 W/m2
15:29 15.8 °C 11.4 °C 1026 hPa North 5.3 km/h 14.5 km/h 73% 0 mm 195 W/m2
15:34 15.8 °C 11.5 °C 1026 hPa North 3.4 km/h 14.5 km/h 73% 0 mm 355 W/m2
15:39 15.8 °C 11.4 °C 1026 hPa North 6.1 km/h 16.1 km/h 72.8% 0 mm 216 W/m2
15:44 15.7 °C 11.3 °C 1026 hPa NNW 7.1 km/h 16.1 km/h 73% 0 mm 362 W/m2
15:49 15.6 °C 11.3 °C 1026 hPa NNW 6.8 km/h 16.1 km/h 73.2% 0 mm 214 W/m2
15:54 15.7 °C 11.7 °C 1026 hPa NW 5.6 km/h 16.1 km/h 74% 0 mm 360 W/m2
15:59 15.7 °C 11.4 °C 1026 hPa NW 6.9 km/h 11.3 km/h 73% 0 mm 125 W/m2
16:04 15.5 °C 11.2 °C 1026 hPa NW 6 km/h 16.1 km/h 73% 0 mm 114 W/m2
16:09 15.4 °C 11.2 °C 1026 hPa NW 6 km/h 11.3 km/h 73% 0 mm 120 W/m2
16:14 15.4 °C 11.2 °C 1026 hPa NW 6.8 km/h 12.9 km/h 73.6% 0 mm 105 W/m2
16:19 15.4 °C 11.3 °C 1026 hPa NNW 6.4 km/h 16.1 km/h 74% 0 mm 107 W/m2
16:24 15.4 °C 11.3 °C 1026 hPa NNW 5.1 km/h 9.7 km/h 74% 0 mm 104 W/m2
16:29 15.4 °C 11.3 °C 1026 hPa NNW 4.7 km/h 9.7 km/h 74% 0 mm 95 W/m2
16:34 15.4 °C 11.3 °C 1026 hPa NNW 4 km/h 8 km/h 74.4% 0 mm 70 W/m2
16:39 15.3 °C 11.2 °C 1026 hPa NNW 7.6 km/h 11.3 km/h 74% 0 mm 84 W/m2
16:44 15.3 °C 11.4 °C 1026 hPa NNW 5.8 km/h 11.3 km/h 75% 0 mm 88 W/m2
16:49 15.3 °C 11.4 °C 1026 hPa NNW 3.9 km/h 9.7 km/h 75% 0 mm 91 W/m2
16:54 15.3 °C 11.4 °C 1026 hPa NNW 4.3 km/h 9.7 km/h 75% 0 mm 98 W/m2
16:59 15.3 °C 11.4 °C 1026 hPa NNW 4 km/h 8 km/h 75% 0 mm 90 W/m2
17:04 15.3 °C 11.4 °C 1026 hPa NNW 3.5 km/h 8 km/h 75% 0 mm 77 W/m2
17:09 15.3 °C 11.4 °C 1026 hPa NNW 2.7 km/h 6.4 km/h 75% 0 mm 63 W/m2
17:14 15.3 °C 11.4 °C 1026 hPa NNW 1 km/h 6.4 km/h 75% 0 mm 53 W/m2
17:19 15.3 °C 11.6 °C 1026 hPa NNW 0.6 km/h 6.4 km/h 75.8% 0 mm 65 W/m2
17:24 15.2 °C 11.4 °C 1026 hPa NNW 4 km/h 6.4 km/h 75.2% 0 mm 54 W/m2
17:29 15.2 °C 11.4 °C 1026 hPa NNW 3.2 km/h 8 km/h 76% 0 mm 49 W/m2
17:34 15.1 °C 11.4 °C 1026 hPa NNW 1.9 km/h 8 km/h 76% 0 mm 46 W/m2
17:39 15.1 °C 11.4 °C 1026.3 hPa NNW 0.6 km/h 3.2 km/h 76% 0 mm 39 W/m2
17:44 15.1 °C 11.4 °C 1026.3 hPa NNW 1.4 km/h 4.8 km/h 76% 0 mm 35 W/m2
17:49 15.1 °C 11.3 °C 1026.3 hPa NNW 4 km/h 9.7 km/h 76% 0 mm 26 W/m2
17:54 15 °C 11.3 °C 1026.3 hPa NNW 1.9 km/h 8 km/h 76% 0 mm 19 W/m2
17:59 14.9 °C 11.2 °C 1026.3 hPa NNW 1.6 km/h 6.4 km/h 76% 0 mm 12 W/m2
18:04 14.9 °C 11.3 °C 1026.3 hPa NNW 1 km/h 4.8 km/h 76.8% 0 mm 11 W/m2
18:09 14.8 °C 11.3 °C 1026.3 hPa NNW 1.9 km/h 8 km/h 77% 0 mm 7 W/m2
18:14 14.8 °C 11.3 °C 1026.3 hPa NNW 0.3 km/h 1.6 km/h 77% 0 mm 5 W/m2
18:19 14.8 °C 11.4 °C 1026.3 hPa Calm     77.4% 0 mm 0 W/m2
18:24 14.9 °C 11.6 °C 1026.3 hPa Calm     78% 0 mm 0 W/m2
18:29 14.9 °C 11.6 °C 1026.3 hPa Calm     78% 0 mm 0 W/m2
18:34 14.9 °C 11.6 °C 1026.3 hPa Calm     78% 0 mm 0 W/m2
18:39 14.9 °C 11.6 °C 1026.6 hPa Calm     78% 0 mm 0 W/m2
18:44 14.8 °C 11.6 °C 1026.6 hPa Calm     78% 0 mm 0 W/m2
18:49 14.7 °C 11.4 °C 1026.6 hPa Calm     78% 0 mm 0 W/m2
18:54 14.7 °C 11.5 °C 1026.6 hPa Calm     78.5% 0 mm 0 W/m2
18:59 14.7 °C 11.6 °C 1026.6 hPa Calm     79% 0 mm 0 W/m2
19:04 14.6 °C 11.5 °C 1026.6 hPa Calm   1.6 km/h 79% 0 mm 0 W/m2
19:09 14.4 °C 11.3 °C 1026.6 hPa Calm     79.2% 0 mm 0 W/m2
19:14 14.3 °C 11.4 °C 1026.6 hPa NNW 0.3 km/h 3.2 km/h 80% 0 mm 0 W/m2
19:19 14.2 °C 11.3 °C 1026.6 hPa NNW 0.3 km/h 3.2 km/h 80% 0 mm 0 W/m2
19:24 14.2 °C 11.4 °C 1026.6 hPa Calm   1.6 km/h 80.8% 0 mm 0 W/m2
19:29 14.1 °C 11.3 °C 1026.6 hPa NNW 1.9 km/h 4.8 km/h 80.8% 0 mm 0 W/m2
19:34 14.1 °C 11.4 °C 1026.6 hPa NNW 1.6 km/h 4.8 km/h 81% 0 mm 0 W/m2
19:39 14.1 °C 11.4 °C 1026.3 hPa NNW 2.6 km/h 6.4 km/h 81% 0 mm 0 W/m2
19:44 14.1 °C 11.4 °C 1026.6 hPa Calm   3.2 km/h 81% 0 mm 0 W/m2
19:49 14.1 °C 11.4 °C 1026.6 hPa NNW 0.6 km/h 4.8 km/h 81% 0 mm 0 W/m2
19:54 14 °C 11.3 °C 1026.6 hPa NNW 3.4 km/h 6.4 km/h 81% 0 mm 0 W/m2
19:59 13.9 °C 11.2 °C 1026.6 hPa NNW 3.5 km/h 8 km/h 81% 0 mm 0 W/m2
20:03 13.8 °C 11.2 °C 1026.6 hPa NNW 2.4 km/h 8 km/h 81% 0 mm 0 W/m2
20:09 13.8 °C 11.2 °C 1026.6 hPa NNW 1.4 km/h 6.4 km/h 81.2% 0 mm 0 W/m2
20:14 13.8 °C 11.3 °C 1026.6 hPa NNW 0.6 km/h 4.8 km/h 82% 0 mm 0 W/m2
20:19 13.8 °C 11.3 °C 1026.6 hPa NNW 1.4 km/h 4.8 km/h 82% 0 mm 0 W/m2
20:24 13.8 °C 11.3 °C 1026.6 hPa NNW 0.3 km/h 3.2 km/h 82% 0 mm 0 W/m2
20:29 13.8 °C 11.3 °C 1026.6 hPa Calm     82% 0 mm 0 W/m2
20:34 13.8 °C 11.3 °C 1027 hPa Calm     82% 0 mm 0 W/m2
20:39 13.8 °C 11.3 °C 1027 hPa Calm   1.6 km/h 82% 0 mm 0 W/m2
20:44 13.8 °C 11.3 °C 1027 hPa NNW 0.3 km/h 1.6 km/h 82% 0 mm 0 W/m2
20:49 13.8 °C 11.3 °C 1027 hPa NNW 0.6 km/h 3.2 km/h 82% 0 mm 0 W/m2
20:54 13.8 °C 11.3 °C 1027 hPa Calm     82% 0 mm 0 W/m2
20:59 13.8 °C 11.3 °C 1027 hPa Calm   3.2 km/h 82.4% 0 mm 0 W/m2
21:04 13.7 °C 11.4 °C 1027.3 hPa Calm     83% 0 mm 0 W/m2
21:09 13.6 °C 11.3 °C 1027.3 hPa NNW 1.6 km/h 4.8 km/h 83% 0 mm 0 W/m2
21:14 13.5 °C 11.2 °C 1027.3 hPa NNW 0.6 km/h 3.2 km/h 83% 0 mm 0 W/m2
21:19 13.4 °C 11.2 °C 1027.3 hPa NNW 1.6 km/h 4.8 km/h 83.8% 0 mm 0 W/m2
21:24 13.4 °C 11.2 °C 1027.3 hPa Calm   1.6 km/h 84% 0 mm 0 W/m2
21:29 13.3 °C 11.1 °C 1027.3 hPa Calm     84% 0 mm 0 W/m2
21:34 13.2 °C 11 °C 1027.3 hPa Calm     84% 0 mm 0 W/m2
21:39 13.1 °C 11 °C 1027.3 hPa Calm     84.4% 0 mm 0 W/m2
21:44 12.9 °C 10.9 °C 1027.3 hPa Calm     85% 0 mm 0 W/m2
21:49 12.9 °C 10.9 °C 1027.3 hPa Calm     85% 0 mm 0 W/m2
21:54 12.9 °C 10.9 °C 1027.3 hPa Calm     85.2% 0 mm 0 W/m2
21:59 12.9 °C 11.1 °C 1027.3 hPa Calm     86% 0 mm 0 W/m2
22:04 12.8 °C 11 °C 1027.3 hPa Calm     86% 0 mm 0 W/m2
22:09 12.8 °C 11 °C 1027.3 hPa Calm     86% 0 mm 0 W/m2
22:14 12.8 °C 11 °C 1027.3 hPa Calm     86% 0 mm 0 W/m2
22:19 12.8 °C 11.1 °C 1027.3 hPa Calm     86.5% 0 mm 0 W/m2
22:24 12.9 °C 11.3 °C 1027.3 hPa NNW 0.3 km/h 1.6 km/h 87% 0 mm 0 W/m2
22:29 12.9 °C 11.3 °C 1027.3 hPa Calm   1.6 km/h 87% 0 mm 0 W/m2
22:34 12.9 °C 11.3 °C 1027.3 hPa Calm     87% 0 mm 0 W/m2
22:39 12.9 °C 11.3 °C 1027.3 hPa Calm     87% 0 mm 0 W/m2
22:44 12.8 °C 11.3 °C 1027.3 hPa Calm     87% 0 mm 0 W/m2
22:49 12.9 °C 11.3 °C 1027.3 hPa Calm     87% 0 mm 0 W/m2
22:54 12.9 °C 11.3 °C 1027.3 hPa Calm     87% 0 mm 0 W/m2
22:59 12.8 °C 11.2 °C 1027.3 hPa Calm     87% 0 mm 0 W/m2
23:04 12.8 °C 11.2 °C 1027.3 hPa Calm     87% 0 mm 0 W/m2
23:09 12.6 °C 11 °C 1027.3 hPa Calm     87% 0 mm 0 W/m2
23:14 12.4 °C 10.8 °C 1027 hPa NNW 1.6 km/h 4.8 km/h 87% 0 mm 0 W/m2
23:19 12.3 °C 10.8 °C 1027 hPa NNW 0.6 km/h 4.8 km/h 87.4% 0 mm 0 W/m2
23:24 12.3 °C 10.9 °C 1027 hPa Calm   1.6 km/h 88% 0 mm 0 W/m2
23:29 12.3 °C 10.9 °C 1027.3 hPa NNW 0.3 km/h 3.2 km/h 88% 0 mm 0 W/m2
23:34 12.2 °C 10.8 °C 1027 hPa NNW 2.4 km/h 4.8 km/h 88% 0 mm 0 W/m2
23:39 12.2 °C 10.8 °C 1027 hPa Calm   1.6 km/h 88% 0 mm 0 W/m2
23:44 12 °C 10.6 °C 1027 hPa Calm     88% 0 mm 0 W/m2
23:49 11.9 °C 10.5 °C 1027.3 hPa NNW 0.6 km/h 3.2 km/h 88.2% 0 mm 0 W/m2
23:54 11.8 °C 10.5 °C 1027.3 hPa Calm   1.6 km/h 89% 0 mm 0 W/m2
23:59 11.7 °C 10.4 °C 1027.3 hPa NNW 0.3 km/h 3.2 km/h 89% 0 mm 0 W/m2
Bath Spa Weather
Compliments of Weather Underground - 2 mb